createdAt,value
2022-12-27T00:01:38.077Z,6.40
2022-12-27T00:04:05.845Z,6.40
2022-12-27T00:06:33.122Z,6.50
2022-12-27T00:09:02.226Z,6.50
2022-12-27T00:11:32.306Z,6.40
2022-12-27T00:14:00.787Z,6.50
2022-12-27T00:16:28.275Z,6.40
2022-12-27T00:18:55.535Z,6.40
2022-12-27T00:21:23.569Z,6.40
2022-12-27T00:23:56.679Z,6.50
2022-12-27T00:26:29.424Z,6.40
2022-12-27T00:28:57.217Z,6.50
2022-12-27T00:31:26.273Z,6.40
2022-12-27T00:33:55.629Z,6.40
2022-12-27T00:36:26.433Z,6.30
2022-12-27T00:38:55.908Z,6.30
2022-12-27T00:41:23.203Z,6.30
2022-12-27T00:43:50.732Z,6.30
2022-12-27T00:46:18.477Z,6.30
2022-12-27T00:48:46.236Z,6.30
2022-12-27T00:51:19.264Z,6.20
2022-12-27T00:53:47.115Z,6.10
2022-12-27T00:56:20.638Z,6.10
2022-12-27T00:58:48.237Z,6.00
2022-12-27T01:01:17.756Z,5.80
2022-12-27T01:03:46.223Z,5.80
2022-12-27T01:06:20.669Z,5.80
2022-12-27T01:08:48.915Z,5.80
2022-12-27T01:11:18.215Z,5.70
2022-12-27T01:13:45.995Z,5.70
2022-12-27T01:16:16.016Z,5.70
2022-12-27T01:18:43.847Z,5.60
2022-12-27T01:21:13.603Z,5.50
2022-12-27T01:23:41.102Z,5.50
2022-12-27T01:26:13.342Z,5.40
2022-12-27T01:28:40.793Z,5.50
2022-12-27T01:31:10.028Z,5.50
2022-12-27T01:33:37.850Z,5.40
2022-12-27T01:36:14.125Z,5.30
2022-12-27T01:38:43.339Z,5.20
2022-12-27T01:41:34.860Z,5.30
2022-12-27T01:44:02.025Z,5.30
2022-12-27T01:46:30.664Z,5.30
2022-12-27T01:48:58.215Z,5.20
2022-12-27T01:51:25.772Z,5.10
2022-12-27T01:53:53.950Z,5.00
2022-12-27T01:56:27.774Z,4.90
2022-12-27T01:59:00.658Z,4.90
2022-12-27T02:01:33.384Z,4.70
2022-12-27T02:04:08.375Z,4.60
2022-12-27T02:06:37.285Z,4.50
2022-12-27T02:09:35.535Z,4.40
2022-12-27T02:12:06.297Z,4.40
2022-12-27T02:14:45.181Z,4.30
2022-12-27T02:17:20.496Z,4.30
2022-12-27T02:20:14.028Z,4.30
2022-12-27T02:23:18.560Z,4.30
2022-12-27T02:25:51.428Z,4.30
2022-12-27T02:28:49.529Z,4.30
2022-12-27T02:31:41.401Z,4.30
2022-12-27T02:34:18.867Z,4.20
2022-12-27T02:36:47.161Z,4.10
2022-12-27T02:39:16.238Z,4.00
2022-12-27T02:42:03.892Z,4.00
2022-12-27T02:44:49.595Z,4.00
2022-12-27T02:47:41.096Z,3.90
2022-12-27T02:50:29.962Z,3.80
2022-12-27T02:53:23.018Z,3.70
2022-12-27T02:56:20.658Z,3.70
2022-12-27T02:58:53.447Z,3.70
2022-12-27T03:01:42.478Z,3.60
2022-12-27T03:04:38.020Z,3.60
2022-12-27T03:07:10.729Z,3.50
2022-12-27T03:09:56.294Z,3.50
2022-12-27T03:13:04.493Z,3.40
2022-12-27T03:15:53.256Z,3.30
2022-12-27T03:18:38.426Z,3.40
2022-12-27T03:21:26.796Z,3.30
2022-12-27T03:24:15.760Z,3.30
2022-12-27T03:26:50.298Z,3.10
2022-12-27T03:29:37.404Z,3.00
2022-12-27T03:32:27.802Z,3.00
2022-12-27T03:35:05.672Z,2.90
2022-12-27T03:37:55.842Z,2.90
2022-12-27T03:41:04.289Z,2.80
2022-12-27T03:43:32.312Z,2.80
2022-12-27T03:46:36.058Z,2.70
2022-12-27T03:49:08.991Z,2.70
2022-12-27T03:51:57.174Z,2.60
2022-12-27T03:54:31.116Z,2.50
2022-12-27T03:57:01.859Z,2.60
2022-12-27T03:59:29.484Z,2.50
2022-12-27T04:01:57.562Z,2.50
2022-12-27T04:04:25.269Z,2.50
2022-12-27T04:06:52.472Z,2.50
2022-12-27T04:09:38.328Z,2.50
2022-12-27T04:12:24.510Z,2.50
2022-12-27T04:15:10.395Z,2.40
2022-12-27T04:17:56.418Z,2.40
2022-12-27T04:20:42.029Z,2.40
2022-12-27T04:23:27.902Z,2.40
2022-12-27T04:26:13.697Z,2.40
2022-12-27T04:28:59.878Z,2.40
2022-12-27T04:31:45.735Z,2.40
2022-12-27T04:34:31.119Z,2.40
2022-12-27T04:36:58.637Z,2.50
2022-12-27T04:39:26.048Z,2.50
2022-12-27T04:42:11.922Z,2.60
2022-12-27T04:44:57.296Z,2.70
2022-12-27T04:47:43.408Z,2.70
2022-12-27T04:50:51.060Z,2.60
2022-12-27T04:53:39.282Z,2.60
2022-12-27T04:56:07.420Z,2.60
2022-12-27T04:58:35.368Z,2.50
2022-12-27T05:01:23.102Z,2.60
2022-12-27T05:03:53.651Z,2.60
2022-12-27T05:06:21.397Z,2.70
2022-12-27T05:09:07.393Z,2.60
2022-12-27T05:11:52.872Z,2.60
2022-12-27T05:14:20.122Z,2.60
2022-12-27T05:16:47.265Z,2.60
2022-12-27T05:19:15.454Z,2.60
2022-12-27T05:22:03.630Z,2.50
2022-12-27T05:24:49.928Z,2.50
2022-12-27T05:27:18.200Z,2.40
2022-12-27T05:29:46.776Z,2.50
2022-12-27T05:32:14.028Z,2.50
2022-12-27T05:34:41.657Z,2.50
2022-12-27T05:37:09.276Z,2.50
2022-12-27T05:39:36.496Z,2.40
2022-12-27T05:42:04.023Z,2.40
2022-12-27T05:44:31.331Z,2.30
2022-12-27T05:46:58.541Z,2.30
2022-12-27T05:49:25.692Z,2.30
2022-12-27T05:51:53.296Z,2.40
2022-12-27T05:54:20.454Z,2.30
2022-12-27T05:56:47.800Z,2.20
2022-12-27T05:59:14.991Z,2.20
2022-12-27T06:01:42.410Z,2.20
2022-12-27T06:04:10.823Z,2.10
2022-12-27T06:06:38.508Z,2.20
2022-12-27T06:09:05.974Z,2.10
2022-12-27T06:11:33.414Z,2.10
2022-12-27T06:14:00.923Z,2.10
2022-12-27T06:16:28.217Z,2.00
2022-12-27T06:18:55.664Z,2.00
2022-12-27T06:21:23.419Z,1.90
2022-12-27T06:23:50.815Z,1.90
2022-12-27T06:26:21.092Z,1.90
2022-12-27T06:28:49.804Z,1.80
2022-12-27T06:31:19.451Z,1.80
2022-12-27T06:33:50.662Z,1.80
2022-12-27T06:36:20.743Z,1.70
2022-12-27T06:38:48.783Z,1.60
2022-12-27T06:41:17.839Z,1.60
2022-12-27T06:43:46.139Z,1.60
2022-12-27T06:46:17.920Z,1.60
2022-12-27T06:48:46.735Z,1.60
2022-12-27T06:51:16.025Z,1.60
2022-12-27T06:53:43.348Z,1.50
2022-12-27T06:56:22.571Z,1.50
2022-12-27T06:58:51.123Z,1.50
2022-12-27T07:01:24.217Z,1.40
2022-12-27T07:03:57.682Z,1.40
2022-12-27T07:06:27.624Z,1.40
2022-12-27T07:08:56.716Z,1.40
2022-12-27T07:11:24.767Z,1.40
2022-12-27T07:13:53.982Z,1.40
2022-12-27T07:16:24.298Z,1.30
2022-12-27T07:18:52.115Z,1.30
2022-12-27T07:21:24.518Z,1.30
2022-12-27T07:23:52.413Z,1.30
2022-12-27T07:26:22.629Z,1.30
2022-12-27T07:28:53.008Z,1.20
2022-12-27T07:31:26.676Z,1.20
2022-12-27T07:33:54.010Z,1.20
2022-12-27T07:36:26.900Z,1.20
2022-12-27T07:38:54.180Z,1.10
2022-12-27T07:41:21.677Z,1.20
2022-12-27T07:43:48.980Z,1.10
2022-12-27T07:46:24.982Z,1.20
2022-12-27T07:48:57.700Z,1.10
2022-12-27T07:51:26.332Z,1.10
2022-12-27T07:53:54.253Z,1.10
2022-12-27T07:56:26.548Z,1.10
2022-12-27T07:58:57.024Z,1.30
2022-12-27T08:01:27.184Z,1.30
2022-12-27T08:03:55.154Z,1.30
2022-12-27T08:06:31.816Z,1.20
2022-12-27T08:09:00.991Z,1.20
2022-12-27T08:11:28.772Z,1.20
2022-12-27T08:13:56.145Z,1.30
2022-12-27T08:18:34.149Z,1.30
2022-12-27T08:21:02.115Z,1.40
2022-12-27T08:23:29.488Z,1.40
2022-12-27T08:25:56.648Z,1.50
2022-12-27T08:28:23.963Z,1.50
2022-12-27T08:30:51.333Z,1.50
2022-12-27T08:33:19.435Z,1.60
2022-12-27T08:35:54.796Z,1.60
2022-12-27T08:38:23.234Z,1.70
2022-12-27T08:40:51.132Z,1.80
2022-12-27T08:43:18.909Z,2.00
2022-12-27T08:45:46.439Z,2.20
2022-12-27T08:48:13.811Z,2.60
2022-12-27T08:50:41.114Z,2.90
2022-12-27T08:53:08.352Z,3.30
2022-12-27T08:55:36.410Z,3.60
2022-12-27T08:58:10.562Z,3.80
2022-12-27T09:00:42.894Z,4.10
2022-12-27T09:03:10.944Z,4.20
2022-12-27T09:05:41.898Z,4.30
2022-12-27T09:08:10.601Z,4.30
2022-12-27T09:10:38.462Z,4.40
2022-12-27T09:13:05.669Z,4.40
2022-12-27T09:15:32.957Z,4.40
2022-12-27T09:18:00.214Z,4.60
2022-12-27T09:20:27.569Z,4.70
2022-12-27T09:22:55.041Z,4.80
2022-12-27T09:25:22.343Z,4.90
2022-12-27T09:27:49.677Z,4.90
2022-12-27T09:30:18.200Z,4.90
2022-12-27T09:32:45.564Z,4.90
2022-12-27T09:35:12.949Z,5.00
2022-12-27T09:37:40.335Z,5.00
2022-12-27T09:40:13.755Z,5.00
2022-12-27T09:43:09.442Z,5.00
2022-12-27T09:45:48.619Z,5.10
2022-12-27T09:48:35.588Z,5.30
2022-12-27T09:51:08.798Z,5.50
2022-12-27T09:53:56.965Z,5.50
2022-12-27T09:56:40.937Z,5.70
2022-12-27T09:59:43.505Z,5.80
2022-12-27T10:02:24.475Z,6.00
2022-12-27T10:05:19.165Z,6.20
2022-12-27T10:07:43.992Z,6.20
2022-12-27T10:10:35.683Z,6.20
2022-12-27T10:13:14.897Z,6.20
2022-12-27T10:15:55.307Z,6.30
2022-12-27T10:18:33.808Z,6.30
2022-12-27T10:21:12.539Z,6.40
2022-12-27T10:23:44.970Z,6.50
2022-12-27T10:26:16.280Z,6.50
2022-12-27T10:28:46.445Z,6.60
2022-12-27T10:31:19.223Z,6.70
2022-12-27T10:33:48.976Z,6.70
2022-12-27T10:36:23.888Z,6.70
2022-12-27T10:38:51.249Z,6.80
2022-12-27T10:41:41.761Z,6.90
2022-12-27T10:44:12.541Z,6.90
2022-12-27T10:46:42.810Z,7.00
2022-12-27T10:49:30.820Z,7.00
2022-12-27T10:52:07.739Z,7.10
2022-12-27T10:54:35.256Z,7.20
2022-12-27T10:57:27.100Z,7.30
2022-12-27T11:00:16.680Z,7.30
2022-12-27T11:02:58.046Z,7.40
2022-12-27T11:05:30.877Z,7.60
2022-12-27T11:07:58.681Z,7.80
2022-12-27T11:10:28.302Z,7.90
2022-12-27T11:13:06.566Z,8.00
2022-12-27T11:15:40.578Z,8.00
2022-12-27T11:18:19.784Z,7.90
2022-12-27T11:20:55.080Z,8.00
2022-12-27T11:23:24.544Z,8.10
2022-12-27T11:26:05.246Z,8.30
2022-12-27T11:28:39.765Z,8.40
2022-12-27T11:31:19.260Z,8.60
2022-12-27T11:33:50.199Z,8.70
2022-12-27T11:36:27.889Z,8.80
2022-12-27T11:38:55.871Z,8.80
2022-12-27T11:41:31.899Z,8.90
2022-12-27T11:44:22.373Z,8.90
2022-12-27T11:47:37.308Z,9.00
2022-12-27T11:50:22.412Z,9.20
2022-12-27T11:52:55.441Z,9.10
2022-12-27T11:55:37.416Z,9.20
2022-12-27T11:58:32.270Z,9.10
2022-12-27T12:01:28.849Z,9.10
2022-12-27T12:04:26.605Z,9.10
2022-12-27T12:07:12.981Z,9.00
2022-12-27T12:10:04.780Z,8.90
2022-12-27T12:12:47.469Z,8.70
2022-12-27T12:15:26.190Z,8.70
2022-12-27T12:18:21.029Z,8.80
2022-12-27T12:21:26.367Z,8.70
2022-12-27T12:24:21.023Z,8.70
2022-12-27T12:27:06.871Z,8.70
2022-12-27T12:30:00.400Z,8.60
2022-12-27T12:32:41.707Z,8.70
2022-12-27T12:35:34.673Z,8.70
2022-12-27T12:38:21.974Z,8.70
2022-12-27T12:40:59.565Z,8.70
2022-12-27T12:43:41.975Z,8.80
2022-12-27T12:46:37.706Z,8.90
2022-12-27T12:49:04.793Z,9.00
2022-12-27T12:51:41.210Z,9.10
2022-12-27T12:54:28.247Z,9.00
2022-12-27T12:57:01.092Z,9.00
2022-12-27T12:59:49.646Z,9.00
2022-12-27T13:02:29.067Z,9.00
2022-12-27T13:05:11.789Z,8.90
2022-12-27T13:08:01.137Z,9.00
2022-12-27T13:11:02.579Z,9.00
2022-12-27T13:14:04.667Z,8.80
2022-12-27T13:16:34.761Z,8.80
2022-12-27T13:19:13.443Z,8.80
2022-12-27T13:22:05.264Z,8.80
2022-12-27T13:24:59.045Z,8.80
2022-12-27T13:27:35.462Z,8.80
2022-12-27T13:30:23.585Z,8.80
2022-12-27T13:33:10.854Z,8.70
2022-12-27T13:35:54.367Z,8.70
2022-12-27T13:38:30.631Z,8.60
2022-12-27T13:41:39.970Z,8.60
2022-12-27T13:44:31.790Z,8.60
2022-12-27T13:47:12.676Z,8.60
2022-12-27T13:50:13.767Z,8.50
2022-12-27T13:52:53.276Z,8.40
2022-12-27T13:55:41.919Z,8.30
2022-12-27T13:58:33.646Z,8.30
2022-12-27T14:01:17.690Z,8.20
2022-12-27T14:03:57.249Z,8.10
2022-12-27T14:06:33.363Z,8.00
2022-12-27T14:09:00.358Z,7.90
2022-12-27T14:11:47.999Z,7.90
2022-12-27T14:14:18.254Z,7.80
2022-12-27T14:16:59.516Z,7.70
2022-12-27T14:19:44.704Z,7.70
2022-12-27T14:22:14.565Z,7.60
2022-12-27T14:25:20.154Z,7.50
2022-12-27T14:28:21.317Z,7.40
2022-12-27T14:31:33.894Z,7.40
2022-12-27T14:34:19.635Z,7.30
2022-12-27T14:36:59.544Z,7.20
2022-12-27T14:40:04.185Z,7.10
2022-12-27T14:42:59.349Z,7.10
2022-12-27T14:46:14.643Z,7.00
2022-12-27T14:49:07.073Z,6.90
2022-12-27T14:52:07.251Z,6.80
2022-12-27T14:55:16.347Z,6.70
2022-12-27T14:57:55.627Z,6.60
2022-12-27T15:00:24.299Z,6.60
2022-12-27T15:03:18.504Z,6.60
2022-12-27T15:05:49.521Z,6.50
2022-12-27T15:08:56.146Z,6.50
2022-12-27T15:11:40.441Z,6.30
2022-12-27T15:14:28.820Z,6.30
2022-12-27T15:17:16.471Z,6.30
2022-12-27T15:20:02.406Z,6.30
2022-12-27T15:23:00.678Z,6.20
2022-12-27T15:25:55.345Z,6.10
2022-12-27T15:28:48.912Z,6.00
2022-12-27T15:31:45.484Z,5.90
2022-12-27T15:34:24.743Z,5.90
2022-12-27T15:36:52.158Z,5.80
2022-12-27T15:39:34.584Z,5.70
2022-12-27T15:42:11.684Z,5.60
2022-12-27T15:45:12.034Z,5.60
2022-12-27T15:47:58.167Z,5.70
2022-12-27T15:50:46.765Z,5.50
2022-12-27T15:53:19.713Z,5.40
2022-12-27T15:56:04.280Z,5.30
2022-12-27T15:58:31.833Z,5.30
2022-12-27T16:01:25.268Z,5.20
2022-12-27T16:03:53.973Z,5.20
2022-12-27T16:06:44.050Z,5.20
2022-12-27T16:09:35.613Z,5.20
2022-12-27T16:12:15.635Z,5.10
2022-12-27T16:14:44.027Z,5.10
2022-12-27T16:17:34.631Z,5.00
2022-12-27T16:20:32.584Z,4.90
2022-12-27T16:23:06.307Z,4.80
2022-12-27T16:25:38.871Z,4.80
2022-12-27T16:28:40.060Z,4.80
2022-12-27T16:31:11.992Z,4.70
2022-12-27T16:33:41.518Z,4.70
2022-12-27T16:36:23.158Z,4.60
2022-12-27T16:38:59.118Z,4.60
2022-12-27T16:41:32.088Z,4.60
2022-12-27T16:44:07.083Z,4.60
2022-12-27T16:46:59.392Z,4.50
2022-12-27T16:49:38.502Z,4.40
2022-12-27T16:52:17.678Z,4.40
2022-12-27T16:55:07.785Z,4.30
2022-12-27T16:57:46.522Z,4.30
2022-12-27T17:00:38.824Z,4.30
2022-12-27T17:03:21.545Z,4.20
2022-12-27T17:06:30.687Z,4.10
2022-12-27T17:08:40.400Z,4.10
2022-12-27T17:11:29.621Z,4.20
2022-12-27T17:14:09.325Z,4.20
2022-12-27T17:16:48.720Z,4.10
2022-12-27T17:19:34.293Z,3.90
2022-12-27T17:22:04.699Z,3.80
2022-12-27T17:24:32.360Z,3.80
2022-12-27T17:27:22.493Z,3.70
2022-12-27T17:29:58.345Z,3.70
2022-12-27T17:32:41.552Z,3.70
2022-12-27T17:35:33.046Z,3.60
2022-12-27T17:38:42.178Z,3.60
2022-12-27T17:41:51.511Z,3.50
2022-12-27T17:44:39.446Z,3.50
2022-12-27T17:47:33.678Z,3.40
2022-12-27T17:50:03.883Z,3.30
2022-12-27T17:52:49.769Z,3.30
2022-12-27T17:55:46.769Z,3.30
2022-12-27T17:58:16.540Z,3.20
2022-12-27T18:00:52.799Z,3.10
2022-12-27T18:03:20.459Z,3.10
2022-12-27T18:05:49.528Z,3.00
2022-12-27T18:08:30.447Z,2.90
2022-12-27T18:10:59.075Z,2.90
2022-12-27T18:13:28.426Z,3.00
2022-12-27T18:15:56.884Z,3.00
2022-12-27T18:18:28.623Z,2.90
2022-12-27T18:21:02.459Z,2.90
2022-12-27T18:23:30.528Z,2.90
2022-12-27T18:26:09.310Z,2.80
2022-12-27T18:28:41.064Z,2.80
2022-12-27T18:31:23.181Z,2.70
2022-12-27T18:33:52.200Z,2.60
2022-12-27T18:36:33.562Z,2.60
2022-12-27T18:39:06.161Z,2.50
2022-12-27T18:41:45.273Z,2.40
2022-12-27T18:44:21.565Z,2.40
2022-12-27T18:46:57.741Z,2.40
2022-12-27T18:49:36.715Z,2.40
2022-12-27T18:52:15.538Z,2.30
2022-12-27T18:54:43.336Z,2.30
2022-12-27T18:57:35.341Z,2.20
2022-12-27T19:00:15.419Z,2.20
2022-12-27T19:02:43.748Z,2.10
2022-12-27T19:05:27.493Z,2.00
2022-12-27T19:08:17.225Z,1.90
2022-12-27T19:10:50.672Z,1.90
2022-12-27T19:13:26.103Z,1.90
2022-12-27T19:15:57.827Z,1.90
2022-12-27T19:18:30.934Z,1.90
2022-12-27T19:21:02.292Z,1.80
2022-12-27T19:23:38.189Z,1.80
2022-12-27T19:26:31.330Z,1.70
2022-12-27T19:29:07.744Z,1.70
2022-12-27T19:31:38.671Z,1.60
2022-12-27T19:34:13.407Z,1.60
2022-12-27T19:36:44.273Z,1.50
2022-12-27T19:39:34.332Z,1.50
2022-12-27T19:42:07.747Z,1.60
2022-12-27T19:44:35.017Z,1.60
2022-12-27T19:47:02.465Z,1.50
2022-12-27T19:49:45.228Z,1.50
2022-12-27T19:52:22.465Z,1.60
2022-12-27T19:54:51.412Z,1.60
2022-12-27T19:57:18.617Z,1.50
2022-12-27T19:59:45.833Z,1.40
2022-12-27T20:02:13.440Z,1.40
2022-12-27T20:04:41.343Z,1.40
2022-12-27T20:07:18.229Z,1.30
2022-12-27T20:09:45.463Z,1.30
2022-12-27T20:12:13.004Z,1.30
2022-12-27T20:14:40.196Z,1.20
2022-12-27T20:17:07.487Z,1.20
2022-12-27T20:19:34.881Z,1.10
2022-12-27T20:22:02.346Z,1.20
2022-12-27T20:24:31.683Z,1.20
2022-12-27T20:26:59.374Z,1.10
2022-12-27T20:29:27.873Z,1.00
2022-12-27T20:31:57.084Z,0.90
2022-12-27T20:34:24.356Z,0.90
2022-12-27T20:36:55.214Z,0.90
2022-12-27T20:39:22.645Z,0.90
2022-12-27T20:41:49.940Z,0.80
2022-12-27T20:44:17.297Z,0.80
2022-12-27T20:46:44.618Z,0.70
2022-12-27T20:49:11.669Z,0.70
2022-12-27T20:51:39.093Z,0.60
2022-12-27T20:54:06.403Z,0.60
2022-12-27T20:56:35.343Z,0.60
2022-12-27T20:59:02.721Z,0.60
2022-12-27T21:01:30.692Z,0.60
2022-12-27T21:03:58.319Z,0.60
2022-12-27T21:06:28.272Z,0.60
2022-12-27T21:08:58.153Z,0.60
2022-12-27T21:11:31.554Z,0.60
2022-12-27T21:14:01.489Z,0.60
2022-12-27T21:16:31.052Z,0.60
2022-12-27T21:18:58.866Z,0.50
2022-12-27T21:21:28.907Z,0.40
2022-12-27T21:24:00.636Z,0.40
2022-12-27T21:26:30.552Z,0.40
2022-12-27T21:28:59.400Z,0.40
2022-12-27T21:31:27.236Z,0.40
2022-12-27T21:33:54.788Z,0.40
2022-12-27T21:36:27.451Z,0.40
2022-12-27T21:38:56.034Z,0.30
2022-12-27T21:41:29.972Z,0.30
2022-12-27T21:43:58.011Z,0.30
2022-12-27T21:46:29.038Z,0.30
2022-12-27T21:48:58.576Z,0.20
2022-12-27T21:51:26.835Z,0.30
2022-12-27T21:53:54.377Z,0.30
2022-12-27T21:56:22.569Z,0.30
2022-12-27T21:58:49.839Z,0.30
2022-12-27T22:01:18.383Z,0.30
2022-12-27T22:03:48.820Z,0.30
2022-12-27T22:06:22.707Z,0.30
2022-12-27T22:08:52.161Z,0.30
2022-12-27T22:11:22.029Z,0.30
2022-12-27T22:13:50.896Z,0.30
2022-12-27T22:16:24.264Z,0.30
2022-12-27T22:18:53.178Z,0.30
2022-12-27T22:21:27.677Z,0.20
2022-12-27T22:23:56.038Z,0.20
2022-12-27T22:26:38.357Z,0.20
2022-12-27T22:29:06.893Z,0.30
2022-12-27T22:31:36.765Z,0.30
2022-12-27T22:34:05.501Z,0.30
2022-12-27T22:36:33.245Z,0.30
2022-12-27T22:39:01.758Z,0.30
2022-12-27T22:41:34.891Z,0.30
2022-12-27T22:44:04.513Z,0.40
2022-12-27T22:46:58.761Z,0.40
2022-12-27T22:49:20.091Z,0.40
2022-12-27T22:51:47.903Z,0.50
2022-12-27T22:54:15.246Z,0.50
2022-12-27T22:56:43.457Z,0.40
2022-12-27T22:59:15.214Z,0.30
2022-12-27T23:01:44.141Z,0.30
2022-12-27T23:04:14.034Z,0.10
2022-12-27T23:06:42.548Z,0.10
2022-12-27T23:09:10.287Z,0.10
2022-12-27T23:11:43.706Z,0.10
2022-12-27T23:14:14.493Z,0.30
2022-12-27T23:16:48.164Z,0.40
2022-12-27T23:19:19.171Z,0.50
2022-12-27T23:21:48.409Z,0.40
2022-12-27T23:24:16.353Z,0.40
2022-12-27T23:26:43.896Z,0.30
2022-12-27T23:29:12.887Z,0.20
2022-12-27T23:31:54.400Z,0.10
2022-12-27T23:34:28.833Z,0.00
2022-12-27T23:36:57.838Z,0.10
2022-12-27T23:39:25.047Z,0.30
2022-12-27T23:41:52.393Z,0.20
2022-12-27T23:44:34.337Z,0.10
2022-12-27T23:47:06.167Z,0.40
2022-12-27T23:49:33.731Z,0.40
2022-12-27T23:52:01.246Z,0.50
2022-12-27T23:54:28.416Z,0.50
2022-12-27T23:56:55.801Z,0.50
2022-12-27T23:59:23.054Z,0.40
